Time;durP1;ratioP1;P1;durP2;ratioP2;P2;SDS_P1;SDS_P2;PMS_P1;PMS_P2;Temp;Humidity;BMP_temperature;BMP_pressure;BME280_temperature;BME280_humidity;BME280_pressure;Samples;Min_cycle;Max_cycle;Signal;HPM_P1;HPM_P2
2024/03/23 00:02:16;;;;;;;;;;;17.70;62.20;;;;;;5112264;28;19943;-70
2024/03/23 00:04:41;;;;;;;;;;;17.60;63.00;;;;;;5112236;28;19966;-70
2024/03/23 00:07:07;;;;;;;;;;;15.70;61.60;;;;;;5112262;28;19953;-70
2024/03/23 00:09:32;;;;;;;;;;;17.60;62.90;;;;;;5112224;28;20389;-70
2024/03/23 00:11:58;;;;;;;;;;;17.70;62.40;;;;;;5112506;28;19908;-70
2024/03/23 00:14:23;;;;;;;;;;;17.70;62.80;;;;;;5112174;28;19943;-70
2024/03/23 00:16:48;;;;;;;;;;;17.60;62.60;;;;;;5112404;28;20378;-70
2024/03/23 00:19:14;;;;;;;;;;;17.60;62.50;;;;;;5112025;28;20377;-70
2024/03/23 00:21:40;;;;;;;;;;;17.50;62.80;;;;;;5112034;28;19908;-70
2024/03/23 00:24:06;;;;;;;;;;;17.50;61.80;;;;;;5112261;28;19918;-69
2024/03/23 00:26:31;;;;;;;;;;;17.50;63.50;;;;;;5112000;28;20294;-69
2024/03/23 00:28:57;;;;;;;;;;;17.60;62.60;;;;;;5111982;28;19912;-70
2024/03/23 00:31:22;;;;;;;;;;;17.50;62.40;;;;;;5111922;28;19912;-70
2024/03/23 00:33:48;;;;;;;;;;;17.60;62.40;;;;;;5111947;28;19908;-70
2024/03/23 00:36:13;;;;;;;;;;;17.50;62.50;;;;;;5114250;28;20203;-70
2024/03/23 00:38:39;;;;;;;;;;;17.60;61.90;;;;;;5116072;28;19915;-70
2024/03/23 00:41:04;;;;;;;;;;;17.50;62.30;;;;;;5115714;28;19930;-70
2024/03/23 00:43:30;;;;;;;;;;;17.50;62.10;;;;;;5115614;28;19907;-71
2024/03/23 00:45:55;;;;;;;;;;;17.50;62.30;;;;;;5115618;28;20440;-71
2024/03/23 00:48:21;;;;;;;;;;;17.50;62.40;;;;;;5115590;28;20377;-70
2024/03/23 00:50:48;;;;;;;;;;;17.50;62.30;;;;;;5115714;28;20381;-71
2024/03/23 00:53:17;;;;;;;;;;;17.50;62.40;;;;;;5115448;28;19907;-69
2024/03/23 00:56:00;;;;;;;;;;;17.40;62.20;;;;;;5113841;28;19947;-71
2024/03/23 00:58:26;;;;;;;;;;;17.40;62.10;;;;;;5115525;28;20270;-71
2024/03/23 01:00:51;;;;;;;;;;;17.60;62.30;;;;;;5115260;28;19945;-71
2024/03/23 01:03:17;;;;;;;;;;;17.50;61.40;;;;;;5115090;28;19940;-71
2024/03/23 01:05:43;;;;;;;;;;;17.40;62.20;;;;;;5115416;28;20316;-71
2024/03/23 01:08:09;;;;;;;;;;;17.40;62.00;;;;;;5115089;28;20251;-70
2024/03/23 01:10:35;;;;;;;;;;;17.40;62.10;;;;;;5115442;28;19912;-71
2024/03/23 01:13:01;;;;;;;;;;;17.40;62.00;;;;;;5114906;28;19907;-71
2024/03/23 01:15:27;;;;;;;;;;;17.70;62.10;;;;;;5115267;28;19915;-71
2024/03/23 01:17:53;;;;;;;;;;;17.40;61.80;;;;;;5115139;28;19912;-71
2024/03/23 01:20:19;;;;;;;;;;;17.40;62.20;;;;;;5114737;28;19916;-71
2024/03/23 01:22:45;;;;;;;;;;;17.30;61.60;;;;;;5115070;28;19908;-70
2024/03/23 01:25:11;;;;;;;;;;;17.40;61.90;;;;;;5114804;28;20258;-71
2024/03/23 01:27:37;;;;;;;;;;;17.30;61.80;;;;;;5115573;28;19914;-71
2024/03/23 01:30:03;;;;;;;;;;;17.30;61.90;;;;;;5114884;28;19943;-70
2024/03/23 01:32:29;;;;;;;;;;;17.30;61.50;;;;;;5114592;28;19914;-71
2024/03/23 01:34:55;;;;;;;;;;;17.20;62.60;;;;;;5114478;28;19908;-71
2024/03/23 01:37:20;;;;;;;;;;;17.20;61.60;;;;;;5114520;28;19907;-71
2024/03/23 01:39:47;;;;;;;;;;;17.30;61.90;;;;;;5114417;28;20461;-71
2024/03/23 01:42:12;;;;;;;;;;;17.30;61.50;;;;;;5114686;28;19911;-71
2024/03/23 01:44:38;;;;;;;;;;;17.30;61.90;;;;;;5114397;28;20286;-71
2024/03/23 01:47:03;;;;;;;;;;;17.30;62.00;;;;;;5113076;28;19915;-71
2024/03/23 01:49:29;;;;;;;;;;;17.30;61.80;;;;;;5114307;28;19908;-71
2024/03/23 01:51:55;;;;;;;;;;;17.30;61.90;;;;;;5114162;28;19943;-71
2024/03/23 01:54:20;;;;;;;;;;;17.20;61.70;;;;;;5114779;28;19908;-70
2024/03/23 01:56:46;;;;;;;;;;;17.20;61.90;;;;;;5114158;28;19908;-71
2024/03/23 01:59:12;;;;;;;;;;;17.20;61.80;;;;;;5114020;28;19939;-71
2024/03/23 02:01:38;;;;;;;;;;;17.30;61.20;;;;;;5114283;28;19930;-70
2024/03/23 02:04:04;;;;;;;;;;;17.20;61.70;;;;;;5113900;28;20382;-70
2024/03/23 02:06:29;;;;;;;;;;;17.20;62.30;;;;;;5114337;28;19907;-70
2024/03/23 02:08:55;;;;;;;;;;;17.20;61.70;;;;;;5113904;28;19908;-70
2024/03/23 02:11:20;;;;;;;;;;;17.10;61.80;;;;;;5113944;28;20335;-69
2024/03/23 02:13:46;;;;;;;;;;;17.10;61.60;;;;;;5113813;28;19951;-70
2024/03/23 02:16:13;;;;;;;;;;;17.10;61.80;;;;;;5113743;28;20370;-70
2024/03/23 02:18:38;;;;;;;;;;;17.10;61.70;;;;;;5113604;28;19935;-69
2024/03/23 02:21:04;;;;;;;;;;;17.20;62.20;;;;;;5113687;28;20370;-70
2024/03/23 02:23:29;;;;;;;;;;;17.20;61.60;;;;;;5113870;28;19915;-69
2024/03/23 02:25:55;;;;;;;;;;;17.20;61.90;;;;;;5113584;28;19961;-69
2024/03/23 02:28:22;;;;;;;;;;;17.20;61.90;;;;;;5113488;28;19908;-69
2024/03/23 02:30:50;;;;;;;;;;;17.10;62.00;;;;;;5113468;28;19915;-69
2024/03/23 02:33:16;;;;;;;;;;;17.20;58.70;;;;;;5113412;28;20366;-69
2024/03/23 02:35:42;;;;;;;;;;;17.20;62.00;;;;;;5113699;28;19915;-70
2024/03/23 02:38:07;;;;;;;;;;;17.20;62.30;;;;;;5113321;28;20383;-69
2024/03/23 02:40:33;;;;;;;;;;;17.20;62.10;;;;;;5113237;28;19966;-69
2024/03/23 02:42:58;;;;;;;;;;;17.20;62.00;;;;;;5113270;28;19908;-70
2024/03/23 02:45:24;;;;;;;;;;;17.10;61.90;;;;;;5113367;28;20003;-69
2024/03/23 02:47:52;;;;;;;;;;;17.20;62.30;;;;;;5113203;28;20289;-69
2024/03/23 02:50:18;;;;;;;;;;;17.10;59.60;;;;;;5113393;28;20282;-69
2024/03/23 02:52:44;;;;;;;;;;;17.20;62.00;;;;;;5113111;28;19908;-69
2024/03/23 02:55:09;;;;;;;;;;;17.10;62.20;;;;;;5113321;28;19915;-69
2024/03/23 02:57:35;;;;;;;;;;;17.10;62.10;;;;;;5112772;28;19907;-69
2024/03/23 03:00:00;;;;;;;;;;;17.20;61.80;;;;;;5113253;28;19942;-69
2024/03/23 03:02:26;;;;;;;;;;;17.10;61.20;;;;;;5112623;28;19969;-69
2024/03/23 03:04:52;;;;;;;;;;;17.10;61.90;;;;;;5113180;28;19994;-69
2024/03/23 03:07:18;;;;;;;;;;;17.10;61.70;;;;;;5113128;28;19994;-69
2024/03/23 03:09:44;;;;;;;;;;;17.10;61.90;;;;;;5113052;28;19947;-69
2024/03/23 03:12:10;;;;;;;;;;;17.00;61.60;;;;;;5113124;28;19915;-69
2024/03/23 03:14:36;;;;;;;;;;;17.10;61.80;;;;;;5113047;28;19908;-70
2024/03/23 03:17:02;;;;;;;;;;;17.00;61.60;;;;;;5112985;28;19908;-69
2024/03/23 03:19:27;;;;;;;;;;;17.00;61.80;;;;;;5112853;28;19916;-69
2024/03/23 03:21:53;;;;;;;;;;;18.00;62.40;;;;;;5112639;28;20316;-69
2024/03/23 03:24:19;;;;;;;;;;;17.00;61.80;;;;;;5112902;28;19908;-69
2024/03/23 03:26:45;;;;;;;;;;;17.00;61.70;;;;;;5112841;28;19908;-69
2024/03/23 03:29:11;;;;;;;;;;;17.00;61.70;;;;;;5113322;28;20270;-71
2024/03/23 03:31:38;;;;;;;;;;;17.00;61.60;;;;;;5112723;28;19907;-70
2024/03/23 03:34:04;;;;;;;;;;;17.00;61.80;;;;;;5112730;28;19951;-71
2024/03/23 03:36:30;;;;;;;;;;;17.00;61.60;;;;;;5112757;28;19973;-71
2024/03/23 03:38:56;;;;;;;;;;;17.00;61.70;;;;;;5112653;28;19915;-70
2024/03/23 03:41:22;;;;;;;;;;;17.00;61.70;;;;;;5112419;28;20259;-71
2024/03/23 03:43:48;;;;;;;;;;;17.00;61.70;;;;;;5112642;28;19908;-69
2024/03/23 03:46:13;;;;;;;;;;;16.90;61.80;;;;;;5112538;28;19908;-71
2024/03/23 03:48:39;;;;;;;;;;;17.00;61.70;;;;;;5112560;28;20277;-71
2024/03/23 03:51:05;;;;;;;;;;;16.90;61.60;;;;;;5112325;28;19972;-71
2024/03/23 03:53:31;;;;;;;;;;;16.90;61.90;;;;;;5112186;28;19953;-71
2024/03/23 03:56:00;;;;;;;;;;;16.90;61.50;;;;;;5112254;28;19912;-70
2024/03/23 03:58:26;;;;;;;;;;;17.10;58.30;;;;;;5113021;28;20252;-70
2024/03/23 04:00:52;;;;;;;;;;;17.40;61.60;;;;;;5112182;28;19911;-71
2024/03/23 04:03:19;;;;;;;;;;;16.90;60.90;;;;;;5111831;28;19926;-71
2024/03/23 04:05:50;;;;;;;;;;;16.90;61.60;;;;;;5112486;28;19915;-70
2024/03/23 04:08:16;;;;;;;;;;;16.80;61.50;;;;;;5112195;28;20382;-71
2024/03/23 04:10:41;;;;;;;;;;;16.80;61.40;;;;;;5114018;28;19907;-70
2024/03/23 04:13:07;;;;;;;;;;;16.80;61.40;;;;;;5116397;28;19908;-70
2024/03/23 04:15:33;;;;;;;;;;;16.80;61.30;;;;;;5116069;28;20297;-71
2024/03/23 04:17:59;;;;;;;;;;;16.80;61.60;;;;;;5115845;28;19908;-71
2024/03/23 04:20:25;;;;;;;;;;;17.00;61.40;;;;;;5115813;28;19923;-70
2024/03/23 04:22:51;;;;;;;;;;;17.10;61.70;;;;;;5115870;28;19908;-70
2024/03/23 04:25:19;;;;;;;;;;;16.90;61.30;;;;;;5116623;28;20006;-71
2024/03/23 04:27:45;;;;;;;;;;;16.70;61.10;;;;;;5116119;28;20274;-70
2024/03/23 04:30:12;;;;;;;;;;;16.80;61.00;;;;;;5116188;28;20010;-70
2024/03/23 04:32:38;;;;;;;;;;;16.70;60.70;;;;;;5115729;28;19908;-70
2024/03/23 04:35:09;;;;;;;;;;;16.80;61.20;;;;;;5116028;28;19907;-70
2024/03/23 04:37:40;;;;;;;;;;;16.70;60.60;;;;;;5116009;28;19923;-71
2024/03/23 04:40:07;;;;;;;;;;;16.70;57.80;;;;;;5115607;28;19939;-70
2024/03/23 04:42:33;;;;;;;;;;;16.80;60.40;;;;;;5115530;28;19934;-70
2024/03/23 04:44:59;;;;;;;;;;;16.70;61.00;;;;;;5115884;28;19908;-70
2024/03/23 04:47:25;;;;;;;;;;;16.70;61.20;;;;;;5115684;28;19955;-71
2024/03/23 04:49:51;;;;;;;;;;;16.60;61.00;;;;;;5115365;28;20246;-71
2024/03/23 04:52:17;;;;;;;;;;;16.70;60.90;;;;;;5115365;28;19914;-70
2024/03/23 04:54:44;;;;;;;;;;;16.50;60.70;;;;;;5116032;28;19911;-71
2024/03/23 04:57:09;;;;;;;;;;;16.60;61.30;;;;;;5115554;28;19908;-71
2024/03/23 04:59:35;;;;;;;;;;;16.60;61.10;;;;;;5096916;28;19984;-70
2024/03/23 05:02:02;;;;;;;;;;;16.70;60.30;;;;;;5115427;28;19908;-70
2024/03/23 05:04:28;;;;;;;;;;;16.60;61.00;;;;;;5114960;28;19923;-70
2024/03/23 05:06:54;;;;;;;;;;;16.60;60.90;;;;;;5115106;28;19915;-70
2024/03/23 05:09:21;;;;;;;;;;;16.60;60.70;;;;;;5115342;28;19908;-71
2024/03/23 05:11:47;;;;;;;;;;;16.50;61.30;;;;;;5115206;28;20003;-71
2024/03/23 05:14:13;;;;;;;;;;;16.60;60.90;;;;;;5115117;28;20002;-71
2024/03/23 05:16:39;;;;;;;;;;;16.60;60.90;;;;;;5115050;28;19909;-71
2024/03/23 05:19:05;;;;;;;;;;;16.50;61.00;;;;;;5114932;28;19920;-71
2024/03/23 05:21:31;;;;;;;;;;;16.50;60.70;;;;;;5114657;28;20289;-71
2024/03/23 05:23:57;;;;;;;;;;;16.50;60.70;;;;;;5115374;28;20278;-71
2024/03/23 05:26:23;;;;;;;;;;;16.50;60.80;;;;;;5114642;28;19990;-70
2024/03/23 05:28:49;;;;;;;;;;;16.50;60.70;;;;;;5114862;28;19907;-71
2024/03/23 05:31:28;;;;;;;;;;;16.50;60.80;;;;;;5114908;28;19908;-71
2024/03/23 05:33:54;;;;;;;;;;;16.50;57.40;;;;;;5114576;28;19908;-71
2024/03/23 05:36:20;;;;;;;;;;;16.40;60.40;;;;;;5114476;28;19987;-69
2024/03/23 05:38:46;;;;;;;;;;;16.40;61.00;;;;;;5114226;28;19916;-70
2024/03/23 05:41:12;;;;;;;;;;;16.40;60.80;;;;;;5114440;28;19963;-69
2024/03/23 05:43:38;;;;;;;;;;;16.50;61.10;;;;;;5114339;28;19930;-69
2024/03/23 05:46:10;;;;;;;;;;;16.40;60.90;;;;;;5114052;28;20352;-69
2024/03/23 05:48:36;;;;;;;;;;;16.40;58.20;;;;;;5114201;28;19915;-69
2024/03/23 05:51:01;;;;;;;;;;;16.40;60.90;;;;;;5114542;28;20271;-69
2024/03/23 05:53:29;;;;;;;;;;;16.40;60.70;;;;;;5114035;28;19908;-69
2024/03/23 05:56:04;;;;;;;;;;;16.40;61.00;;;;;;5113875;28;19912;-69
2024/03/23 05:58:29;;;;;;;;;;;16.40;57.40;;;;;;5113890;28;19961;-69
2024/03/23 06:00:59;;;;;;;;;;;16.40;61.00;;;;;;5113862;28;19915;-69
2024/03/23 06:03:24;;;;;;;;;;;16.50;60.50;;;;;;5113792;28;19919;-69
2024/03/23 06:05:50;;;;;;;;;;;16.40;60.80;;;;;;5113835;28;20419;-70
2024/03/23 06:08:16;;;;;;;;;;;16.40;61.20;;;;;;5113743;28;19930;-69
2024/03/23 06:10:41;;;;;;;;;;;16.40;60.90;;;;;;5113708;28;19915;-69
2024/03/23 06:13:08;;;;;;;;;;;16.40;61.10;;;;;;5113775;28;19965;-69
2024/03/23 06:15:37;;;;;;;;;;;16.20;61.00;;;;;;5113574;28;19920;-69
2024/03/23 06:18:03;;;;;;;;;;;16.40;61.20;;;;;;5113527;28;20000;-69
2024/03/23 06:20:29;;;;;;;;;;;16.50;60.60;;;;;;5113821;28;19948;-71
2024/03/23 06:22:55;;;;;;;;;;;16.30;61.00;;;;;;5113361;28;20421;-71
2024/03/23 06:25:20;;;;;;;;;;;16.40;60.70;;;;;;5113336;28;19998;-71
2024/03/23 06:27:46;;;;;;;;;;;16.40;61.10;;;;;;5113240;28;19995;-71
2024/03/23 06:30:12;;;;;;;;;;;16.30;61.10;;;;;;5113522;28;19908;-71
2024/03/23 06:32:38;;;;;;;;;;;16.30;59.70;;;;;;5112980;28;19908;-71
2024/03/23 06:35:08;;;;;;;;;;;16.30;61.60;;;;;;5112996;28;19908;-71
2024/03/23 06:37:34;;;;;;;;;;;16.50;61.20;;;;;;5113349;28;19915;-71
2024/03/23 06:40:00;;;;;;;;;;;16.30;61.30;;;;;;5112963;28;19916;-71
2024/03/23 06:42:26;;;;;;;;;;;16.40;61.40;;;;;;5113376;28;19915;-71
2024/03/23 06:44:51;;;;;;;;;;;16.40;61.40;;;;;;5113084;28;20005;-71
2024/03/23 06:47:17;;;;;;;;;;;16.40;61.00;;;;;;5113792;28;19907;-71
2024/03/23 06:49:43;;;;;;;;;;;16.30;61.20;;;;;;5112919;28;19946;-70
2024/03/23 06:52:08;;;;;;;;;;;16.40;61.60;;;;;;5112940;28;19908;-71
2024/03/23 06:54:34;;;;;;;;;;;16.40;61.50;;;;;;5113183;28;19907;-71
2024/03/23 06:56:59;;;;;;;;;;;16.40;61.40;;;;;;5112869;28;19914;-71
2024/03/23 06:59:24;;;;;;;;;;;16.30;61.80;;;;;;5112644;28;19919;-71
2024/03/23 07:01:50;;;;;;;;;;;16.50;61.00;;;;;;5112586;28;19908;-70
2024/03/23 07:04:15;;;;;;;;;;;16.30;61.40;;;;;;5112419;28;19919;-70
2024/03/23 07:06:45;;;;;;;;;;;16.40;61.80;;;;;;5112484;28;20002;-71
2024/03/23 07:09:11;;;;;;;;;;;16.40;58.30;;;;;;5112416;28;19999;-70
2024/03/23 07:11:36;;;;;;;;;;;16.30;61.50;;;;;;5112518;28;19958;-71
2024/03/23 07:14:05;;;;;;;;;;;16.30;61.50;;;;;;5112327;28;19908;-73
2024/03/23 07:16:30;;;;;;;;;;;16.70;59.30;;;;;;5116598;28;19908;-71
2024/03/23 07:18:56;;;;;;;;;;;16.30;61.70;;;;;;5115872;28;19911;-72
2024/03/23 07:21:22;;;;;;;;;;;16.30;61.20;;;;;;5112584;28;19957;-73
2024/03/23 07:23:47;;;;;;;;;;;16.50;61.80;;;;;;5112344;28;20334;-72
2024/03/23 07:26:13;;;;;;;;;;;16.40;61.90;;;;;;5112388;28;19918;-73
2024/03/23 07:28:42;;;;;;;;;;;16.30;61.60;;;;;;5112250;28;19916;-74
2024/03/23 07:31:09;;;;;;;;;;;16.30;61.50;;;;;;5112221;28;19908;-72
2024/03/23 07:33:35;;;;;;;;;;;16.30;61.60;;;;;;5112139;28;19915;-73
2024/03/23 07:36:01;;;;;;;;;;;16.40;62.50;;;;;;5112133;28;20018;-73
2024/03/23 07:38:28;;;;;;;;;;;16.40;61.70;;;;;;5112070;28;19960;-72
2024/03/23 07:41:06;;;;;;;;;;;16.30;61.70;;;;;;5112042;28;20391;-72
2024/03/23 07:43:32;;;;;;;;;;;16.40;58.30;;;;;;5111938;28;19908;-73
2024/03/23 07:45:57;;;;;;;;;;;16.40;61.90;;;;;;5124104;28;19915;-72
2024/03/23 07:48:23;;;;;;;;;;;16.40;62.00;;;;;;5116182;28;19912;-72
2024/03/23 07:51:05;;;;;;;;;;;16.40;62.00;;;;;;5116229;28;19912;-72
2024/03/23 07:53:31;;;;;;;;;;;16.40;58.40;;;;;;5116304;28;19908;-72
2024/03/23 07:55:57;;;;;;;;;;;16.40;62.20;;;;;;5116295;28;19968;-72
2024/03/23 07:58:23;;;;;;;;;;;16.40;62.40;;;;;;5116439;28;19961;-72
2024/03/23 08:00:48;;;;;;;;;;;16.40;62.00;;;;;;5116165;28;19962;-72
2024/03/23 08:03:14;;;;;;;;;;;16.50;61.90;;;;;;5115814;28;19955;-72
2024/03/23 08:05:39;;;;;;;;;;;16.50;62.20;;;;;;5116125;28;19908;-72
2024/03/23 08:08:05;;;;;;;;;;;16.50;62.00;;;;;;5116296;28;19999;-73
2024/03/23 08:10:30;;;;;;;;;;;16.60;61.70;;;;;;5116221;28;19908;-71
2024/03/23 08:12:56;;;;;;;;;;;16.40;62.30;;;;;;5116439;28;19995;-70
2024/03/23 08:15:21;;;;;;;;;;;16.20;61.60;;;;;;5115853;28;19915;-70
2024/03/23 08:17:47;;;;;;;;;;;16.50;61.80;;;;;;5115714;28;19908;-72
2024/03/23 08:20:12;;;;;;;;;;;16.50;61.80;;;;;;5115605;28;20026;-71
2024/03/23 08:22:38;;;;;;;;;;;16.30;62.00;;;;;;5115602;28;19907;-71
2024/03/23 08:25:03;;;;;;;;;;;16.50;61.90;;;;;;5115556;28;19908;-71
2024/03/23 08:27:29;;;;;;;;;;;16.60;61.00;;;;;;5115623;28;19912;-72
2024/03/23 08:29:54;;;;;;;;;;;16.50;61.60;;;;;;5115426;28;19954;-73
2024/03/23 08:32:20;;;;;;;;;;;16.40;61.50;;;;;;5115443;28;19915;-71
2024/03/23 08:34:45;;;;;;;;;;;16.30;61.50;;;;;;5115349;28;19907;-71
2024/03/23 08:37:11;;;;;;;;;;;16.50;61.60;;;;;;5115236;28;19953;-72
2024/03/23 08:39:36;;;;;;;;;;;17.10;62.20;;;;;;5115253;28;19927;-72
2024/03/23 08:42:02;;;;;;;;;;;16.70;61.20;;;;;;5115826;28;19939;-72
2024/03/23 08:44:27;;;;;;;;;;;16.60;61.30;;;;;;5115056;28;20428;-70
2024/03/23 08:46:55;;;;;;;;;;;16.60;61.40;;;;;;5115120;28;19912;-70
2024/03/23 08:49:21;;;;;;;;;;;16.60;61.50;;;;;;5115062;28;19955;-70
2024/03/23 08:51:46;;;;;;;;;;;16.60;61.70;;;;;;5114968;28;19939;-69
2024/03/23 08:54:12;;;;;;;;;;;16.60;62.30;;;;;;5114925;28;19908;-69
2024/03/23 08:56:37;;;;;;;;;;;16.60;62.20;;;;;;5114154;28;19907;-69
2024/03/23 08:59:03;;;;;;;;;;;16.70;61.60;;;;;;5114570;28;19977;-69
2024/03/23 09:01:28;;;;;;;;;;;16.80;61.50;;;;;;5114642;28;19950;-68
2024/03/23 09:03:54;;;;;;;;;;;16.60;62.00;;;;;;5114453;28;20275;-69
2024/03/23 09:06:19;;;;;;;;;;;16.70;61.70;;;;;;5114542;28;19908;-69
2024/03/23 09:08:45;;;;;;;;;;;15.20;60.90;;;;;;5096263;28;19908;-69
2024/03/23 09:11:11;;;;;;;;;;;16.80;61.30;;;;;;5114782;28;19941;-69
2024/03/23 09:13:37;;;;;;;;;;;16.80;61.70;;;;;;5114379;28;19966;-70
2024/03/23 09:16:04;;;;;;;;;;;16.70;61.70;;;;;;5114273;28;19938;-69
2024/03/23 09:18:35;;;;;;;;;;;16.80;60.50;;;;;;5114263;28;19908;-69
2024/03/23 09:21:00;;;;;;;;;;;16.90;57.90;;;;;;5114530;28;19974;-69
2024/03/23 09:23:26;;;;;;;;;;;17.00;60.60;;;;;;5114985;28;19994;-73
2024/03/23 09:25:51;;;;;;;;;;;17.00;60.60;;;;;;5114032;28;19908;-69
2024/03/23 09:28:17;;;;;;;;;;;16.90;61.00;;;;;;5114058;28;19996;-69
2024/03/23 09:30:43;;;;;;;;;;;16.90;60.60;;;;;;5114186;28;19912;-68
2024/03/23 09:33:08;;;;;;;;;;;17.00;61.00;;;;;;5114157;28;20322;-69
2024/03/23 09:35:38;;;;;;;;;;;17.00;60.90;;;;;;5114162;28;19908;-70
2024/03/23 09:38:03;;;;;;;;;;;17.00;57.50;;;;;;5114041;28;19919;-69
2024/03/23 09:40:29;;;;;;;;;;;17.10;60.50;;;;;;5113997;28;19916;-69
2024/03/23 09:42:55;;;;;;;;;;;17.10;60.70;;;;;;5114005;28;19908;-69
2024/03/23 09:45:21;;;;;;;;;;;17.20;60.30;;;;;;5113933;28;19915;-69
2024/03/23 09:47:47;;;;;;;;;;;17.10;60.80;;;;;;5113915;28;19951;-69
2024/03/23 09:50:13;;;;;;;;;;;17.10;60.90;;;;;;5113947;28;19918;-69
2024/03/23 09:52:39;;;;;;;;;;;17.10;61.40;;;;;;5113927;28;19960;-69
2024/03/23 09:55:05;;;;;;;;;;;17.10;61.20;;;;;;5113910;28;19915;-68
2024/03/23 09:57:30;;;;;;;;;;;17.20;60.80;;;;;;5113744;28;19914;-69
2024/03/23 09:59:57;;;;;;;;;;;17.20;61.10;;;;;;5113605;28;19961;-69
2024/03/23 10:02:24;;;;;;;;;;;17.20;60.10;;;;;;5113323;28;19938;-69
2024/03/23 10:04:51;;;;;;;;;;;17.30;60.70;;;;;;5112674;28;21666;-69
2024/03/23 10:07:21;;;;;;;;;;;17.20;60.50;;;;;;5113098;28;19919;-69
2024/03/23 10:09:47;;;;;;;;;;;17.20;57.20;;;;;;5113320;28;20377;-74
2024/03/23 10:12:14;;;;;;;;;;;17.30;60.80;;;;;;5113347;28;20331;-75
2024/03/23 10:14:40;;;;;;;;;;;17.30;61.20;;;;;;5113341;28;20005;-78
2024/03/23 10:17:13;;;;;;;;;;;17.30;61.10;;;;;;5113302;28;19919;-73
2024/03/23 10:19:39;;;;;;;;;;;17.30;57.10;;;;;;5113368;28;19923;-73
2024/03/23 10:22:06;;;;;;;;;;;17.30;60.60;;;;;;5113547;28;19912;-73
2024/03/23 10:24:31;;;;;;;;;;;17.30;60.60;;;;;;5113592;28;19953;-73
2024/03/23 10:26:57;;;;;;;;;;;17.30;59.70;;;;;;5113106;28;19912;-73
2024/03/23 10:29:23;;;;;;;;;;;17.40;60.10;;;;;;5113047;28;19911;-72
2024/03/23 10:31:49;;;;;;;;;;;17.40;59.80;;;;;;5112957;28;19907;-73
2024/03/23 10:34:15;;;;;;;;;;;17.60;59.90;;;;;;5113021;28;19908;-73
2024/03/23 10:36:41;;;;;;;;;;;17.30;59.80;;;;;;5113040;28;19915;-73
2024/03/23 10:39:07;;;;;;;;;;;17.30;60.40;;;;;;5112910;28;19915;-72
2024/03/23 10:41:33;;;;;;;;;;;17.10;59.80;;;;;;5112776;28;19922;-73
2024/03/23 10:44:01;;;;;;;;;;;17.30;60.00;;;;;;5112997;28;19908;-73
2024/03/23 10:46:27;;;;;;;;;;;17.30;60.00;;;;;;5112864;28;19923;-73
2024/03/23 10:48:52;;;;;;;;;;;17.30;59.70;;;;;;5112773;28;20046;-73
2024/03/23 10:51:18;;;;;;;;;;;17.30;60.00;;;;;;5112616;28;19912;-73
2024/03/23 10:53:45;;;;;;;;;;;17.30;59.60;;;;;;5112702;28;19952;-73
2024/03/23 10:56:10;;;;;;;;;;;17.40;59.60;;;;;;5112559;28;20392;-73
2024/03/23 10:58:41;;;;;;;;;;;17.50;59.00;;;;;;5112615;28;19907;-76
2024/03/23 11:01:06;;;;;;;;;;;17.60;58.80;;;;;;5112799;28;20010;-75
2024/03/23 11:03:36;;;;;;;;;;;17.70;58.30;;;;;;5112173;28;19980;-70
2024/03/23 11:06:03;;;;;;;;;;;17.70;58.80;;;;;;5112606;28;19912;-73
2024/03/23 11:08:30;;;;;;;;;;;17.60;58.30;;;;;;5112703;28;19914;-75
2024/03/23 11:11:11;;;;;;;;;;;17.60;58.90;;;;;;5112400;28;19908;-75
2024/03/23 11:13:37;;;;;;;;;;;17.70;58.80;;;;;;5112481;28;19926;-74
2024/03/23 11:16:13;;;;;;;;;;;17.60;58.90;;;;;;5112215;28;19911;-73
2024/03/23 11:18:38;;;;;;;;;;;17.80;55.70;;;;;;5112208;28;20396;-73
2024/03/23 11:21:04;;;;;;;;;;;17.50;58.60;;;;;;5112149;28;19912;-74
2024/03/23 11:23:29;;;;;;;;;;;17.90;58.70;;;;;;5112034;28;19973;-75
2024/03/23 11:25:55;;;;;;;;;;;18.10;57.70;;;;;;5112131;28;19915;-75
2024/03/23 11:28:21;;;;;;;;;;;18.20;57.30;;;;;;5112068;28;19926;-75
2024/03/23 11:30:47;;;;;;;;;;;18.30;56.90;;;;;;5112163;28;19908;-76
2024/03/23 11:33:12;;;;;;;;;;;18.30;57.00;;;;;;5112053;28;19919;-82
2024/03/23 11:35:40;;;;;;;;;;;18.40;56.90;;;;;;5093720;28;19908;-75
2024/03/23 11:38:12;;;;;;;;;;;18.50;56.60;;;;;;5112207;28;19920;-77
2024/03/23 11:40:38;;;;;;;;;;;18.50;53.20;;;;;;5111907;28;19959;-80
2024/03/23 11:43:07;;;;;;;;;;;18.70;56.00;;;;;;5111899;28;19961;-75
2024/03/23 11:45:33;;;;;;;;;;;18.80;55.80;;;;;;5093674;28;19912;-74
2024/03/23 11:48:03;;;;;;;;;;;18.80;55.60;;;;;;5112412;28;19907;-73
2024/03/23 11:50:29;;;;;;;;;;;18.80;52.50;;;;;;5111818;28;19911;-76
2024/03/23 11:53:05;;;;;;;;;;;18.80;55.60;;;;;;5093613;28;19915;-75
2024/03/23 11:55:38;;;;;;;;;;;18.80;55.70;;;;;;5111805;28;20007;-76
2024/03/23 11:58:03;;;;;;;;;;;18.80;55.70;;;;;;5093481;28;19938;-77
2024/03/23 12:00:29;;;;;;;;;;;18.80;55.70;;;;;;5093441;28;19916;-74
2024/03/23 12:02:59;;;;;;;;;;;19.00;55.10;;;;;;5111585;28;20389;-75
2024/03/23 12:05:26;;;;;;;;;;;18.80;55.60;;;;;;5093416;28;19912;-73
2024/03/23 12:07:51;;;;;;;;;;;18.70;55.70;;;;;;5111761;28;20258;-75
2024/03/23 12:10:19;;;;;;;;;;;18.70;56.00;;;;;;5111657;28;19915;-74
2024/03/23 12:12:44;;;;;;;;;;;18.60;56.10;;;;;;5111673;28;20311;-78
2024/03/23 12:15:12;;;;;;;;;;;18.70;56.30;;;;;;5093275;28;20002;-78
2024/03/23 12:17:38;;;;;;;;;;;18.60;55.10;;;;;;5112204;28;20334;-75
2024/03/23 12:20:04;;;;;;;;;;;19.10;56.40;;;;;;5111245;28;19962;-75
2024/03/23 12:22:30;;;;;;;;;;;18.60;54.90;;;;;;5111423;28;19916;-75
2024/03/23 12:24:56;;;;;;;;;;;18.90;55.80;;;;;;5111463;28;19998;-75
2024/03/23 12:27:22;;;;;;;;;;;19.10;55.20;;;;;;5111348;28;19908;-75
2024/03/23 12:29:48;;;;;;;;;;;19.00;55.50;;;;;;5111388;28;19930;-75
2024/03/23 12:32:14;;;;;;;;;;;19.10;55.60;;;;;;5113909;28;19907;-75
2024/03/23 12:34:39;;;;;;;;;;;19.10;55.30;;;;;;5115225;28;19914;-75
2024/03/23 12:37:09;;;;;;;;;;;19.20;55.00;;;;;;5115256;28;20400;-75
2024/03/23 12:39:35;;;;;;;;;;;19.20;52.20;;;;;;5115062;28;20301;-75
2024/03/23 12:42:01;;;;;;;;;;;19.10;54.60;;;;;;5115213;28;19977;-74
2024/03/23 12:44:26;;;;;;;;;;;19.10;54.80;;;;;;5115630;28;20353;-75
2024/03/23 12:46:52;;;;;;;;;;;19.00;54.90;;;;;;5114983;28;19915;-75
2024/03/23 12:49:17;;;;;;;;;;;19.00;55.10;;;;;;5115009;28;19908;-75
2024/03/23 12:51:48;;;;;;;;;;;18.90;55.60;;;;;;5115053;28;19911;-77
2024/03/23 12:54:13;;;;;;;;;;;18.80;52.70;;;;;;5114867;28;19916;-76
2024/03/23 12:56:39;;;;;;;;;;;18.70;56.10;;;;;;5115077;28;19953;-76
2024/03/23 12:59:04;;;;;;;;;;;18.60;56.20;;;;;;5096353;28;19911;-76
2024/03/23 13:01:29;;;;;;;;;;;18.80;55.60;;;;;;5114642;28;20443;-76
2024/03/23 13:03:55;;;;;;;;;;;18.70;56.10;;;;;;5114517;28;19930;-76
2024/03/23 13:06:21;;;;;;;;;;;18.80;55.40;;;;;;5114985;28;19908;-76
2024/03/23 13:08:49;;;;;;;;;;;18.80;55.70;;;;;;5114579;28;19995;-76
2024/03/23 13:11:15;;;;;;;;;;;19.10;56.00;;;;;;5114726;28;19915;-76
2024/03/23 13:13:41;;;;;;;;;;;18.80;55.60;;;;;;5115022;28;19908;-75
2024/03/23 13:16:08;;;;;;;;;;;18.80;56.00;;;;;;5114771;28;20024;-75
2024/03/23 13:18:34;;;;;;;;;;;18.70;56.10;;;;;;5114649;28;19908;-75
2024/03/23 13:21:00;;;;;;;;;;;18.60;56.20;;;;;;5114508;28;19915;-75
2024/03/23 13:23:26;;;;;;;;;;;18.60;56.60;;;;;;5114557;28;20379;-75
2024/03/23 13:25:55;;;;;;;;;;;18.60;56.50;;;;;;5114193;28;20006;-76
2024/03/23 13:28:21;;;;;;;;;;;18.50;56.80;;;;;;5114161;28;19937;-76
2024/03/23 13:30:51;;;;;;;;;;;18.60;57.00;;;;;;5114451;28;19908;-76
2024/03/23 13:33:17;;;;;;;;;;;18.40;53.90;;;;;;5114145;28;20370;-76
2024/03/23 13:35:53;;;;;;;;;;;18.40;56.90;;;;;;5114335;28;19916;-76
2024/03/23 13:38:19;;;;;;;;;;;18.50;53.80;;;;;;5113990;28;19908;-76
2024/03/23 13:40:51;;;;;;;;;;;18.20;56.40;;;;;;5114167;28;19922;-76
2024/03/23 13:43:17;;;;;;;;;;;18.40;53.60;;;;;;5114619;28;19912;-75
2024/03/23 13:45:43;;;;;;;;;;;18.30;56.70;;;;;;5114133;28;19938;-76
2024/03/23 13:48:09;;;;;;;;;;;18.30;56.90;;;;;;5114115;28;19934;-76
2024/03/23 13:50:35;;;;;;;;;;;18.20;56.90;;;;;;5114122;28;19912;-75
2024/03/23 13:53:01;;;;;;;;;;;18.20;57.00;;;;;;5113705;28;19969;-76
2024/03/23 13:55:27;;;;;;;;;;;18.20;57.50;;;;;;5113906;28;19947;-75
2024/03/23 13:57:52;;;;;;;;;;;18.60;57.50;;;;;;5113723;28;20007;-75
2024/03/23 14:00:18;;;;;;;;;;;17.80;57.30;;;;;;5113576;28;19923;-74
2024/03/23 14:02:44;;;;;;;;;;;18.20;56.50;;;;;;5113393;28;19912;-75
2024/03/23 14:05:11;;;;;;;;;;;18.00;57.10;;;;;;5113557;28;19977;-75
2024/03/23 14:07:36;;;;;;;;;;;18.00;57.30;;;;;;5113579;28;19952;-74
2024/03/23 14:10:10;;;;;;;;;;;17.90;56.70;;;;;;5095628;28;19915;-73
2024/03/23 14:12:37;;;;;;;;;;;17.90;54.00;;;;;;5120313;28;19908;-74